sensor_id;sensor_type;location;lat;lon;timestamp;P1;durP1;ratioP1;P2;durP2;ratioP2
80987;SDS011;70452;39.386;-3.210;2024-01-06T00:02:17;1.23;;;0.10;;
80987;SDS011;70452;39.386;-3.210;2024-01-06T00:05:03;1.58;;;0.10;;
80987;SDS011;70452;39.386;-3.210;2024-01-06T00:07:54;1.45;;;0.10;;
80987;SDS011;70452;39.386;-3.210;2024-01-06T00:10:26;1.05;;;0.10;;
80987;SDS011;70452;39.386;-3.210;2024-01-06T00:12:54;1.15;;;0.03;;
80987;SDS011;70452;39.386;-3.210;2024-01-06T00:15:35;1.52;;;0.20;;
80987;SDS011;70452;39.386;-3.210;2024-01-06T00:18:17;2.72;;;0.20;;
80987;SDS011;70452;39.386;-3.210;2024-01-06T00:21:31;1.48;;;0.10;;
80987;SDS011;70452;39.386;-3.210;2024-01-06T00:24:02;0.90;;;0.13;;
80987;SDS011;70452;39.386;-3.210;2024-01-06T00:26:46;0.47;;;0.00;;
80987;SDS011;70452;39.386;-3.210;2024-01-06T00:29:35;0.75;;;0.00;;
80987;SDS011;70452;39.386;-3.210;2024-01-06T00:32:10;0.68;;;0.00;;
80987;SDS011;70452;39.386;-3.210;2024-01-06T00:34:43;1.75;;;0.00;;
80987;SDS011;70452;39.386;-3.210;2024-01-06T00:37:22;1.38;;;0.10;;
80987;SDS011;70452;39.386;-3.210;2024-01-06T00:40:08;3.50;;;0.25;;
80987;SDS011;70452;39.386;-3.210;2024-01-06T00:42:54;1.45;;;0.00;;
80987;SDS011;70452;39.386;-3.210;2024-01-06T00:45:30;2.05;;;0.30;;
80987;SDS011;70452;39.386;-3.210;2024-01-06T00:48:03;0.40;;;0.00;;
80987;SDS011;70452;39.386;-3.210;2024-01-06T00:50:44;2.97;;;0.10;;
80987;SDS011;70452;39.386;-3.210;2024-01-06T00:53:25;0.90;;;0.00;;
80987;SDS011;70452;39.386;-3.210;2024-01-06T00:56:20;0.93;;;0.00;;
80987;SDS011;70452;39.386;-3.210;2024-01-06T00:59:01;0.20;;;0.00;;
80987;SDS011;70452;39.386;-3.210;2024-01-06T01:01:48;1.40;;;0.08;;
80987;SDS011;70452;39.386;-3.210;2024-01-06T01:04:32;1.27;;;0.00;;
80987;SDS011;70452;39.386;-3.210;2024-01-06T01:07:30;2.10;;;0.10;;
80987;SDS011;70452;39.386;-3.210;2024-01-06T01:10:05;0.93;;;0.00;;
80987;SDS011;70452;39.386;-3.210;2024-01-06T01:13:04;1.15;;;0.00;;
80987;SDS011;70452;39.386;-3.210;2024-01-06T01:15:33;1.17;;;0.00;;
80987;SDS011;70452;39.386;-3.210;2024-01-06T01:18:18;1.00;;;0.03;;
80987;SDS011;70452;39.386;-3.210;2024-01-06T01:20:57;3.78;;;0.30;;
80987;SDS011;70452;39.386;-3.210;2024-01-06T01:24:04;1.58;;;0.08;;
80987;SDS011;70452;39.386;-3.210;2024-01-06T01:26:49;0.73;;;0.00;;
80987;SDS011;70452;39.386;-3.210;2024-01-06T01:29:29;0.73;;;0.00;;
80987;SDS011;70452;39.386;-3.210;2024-01-06T01:32:16;0.55;;;0.00;;
80987;SDS011;70452;39.386;-3.210;2024-01-06T01:34:49;1.27;;;0.03;;
80987;SDS011;70452;39.386;-3.210;2024-01-06T01:37:37;1.05;;;0.00;;
80987;SDS011;70452;39.386;-3.210;2024-01-06T01:40:33;1.67;;;0.10;;
80987;SDS011;70452;39.386;-3.210;2024-01-06T01:43:01;1.77;;;0.10;;
80987;SDS011;70452;39.386;-3.210;2024-01-06T01:45:32;1.30;;;0.00;;
80987;SDS011;70452;39.386;-3.210;2024-01-06T01:48:21;2.03;;;0.00;;
80987;SDS011;70452;39.386;-3.210;2024-01-06T01:51:09;1.65;;;0.10;;
80987;SDS011;70452;39.386;-3.210;2024-01-06T01:53:52;0.85;;;0.00;;
80987;SDS011;70452;39.386;-3.210;2024-01-06T01:56:39;2.60;;;0.10;;
80987;SDS011;70452;39.386;-3.210;2024-01-06T01:59:26;0.40;;;0.00;;
80987;SDS011;70452;39.386;-3.210;2024-01-06T02:05:08;1.17;;;0.05;;
80987;SDS011;70452;39.386;-3.210;2024-01-06T02:08:00;0.82;;;0.00;;
80987;SDS011;70452;39.386;-3.210;2024-01-06T02:10:53;0.57;;;0.00;;
80987;SDS011;70452;39.386;-3.210;2024-01-06T02:13:40;0.95;;;0.08;;
80987;SDS011;70452;39.386;-3.210;2024-01-06T02:16:34;2.03;;;0.00;;
80987;SDS011;70452;39.386;-3.210;2024-01-06T02:19:05;1.38;;;0.10;;
80987;SDS011;70452;39.386;-3.210;2024-01-06T02:21:41;0.75;;;0.00;;
80987;SDS011;70452;39.386;-3.210;2024-01-06T02:24:21;0.55;;;0.00;;
80987;SDS011;70452;39.386;-3.210;2024-01-06T02:30:05;1.15;;;0.00;;
80987;SDS011;70452;39.386;-3.210;2024-01-06T02:32:37;1.00;;;0.10;;
80987;SDS011;70452;39.386;-3.210;2024-01-06T02:35:11;1.50;;;0.10;;
80987;SDS011;70452;39.386;-3.210;2024-01-06T02:37:46;1.00;;;0.00;;
80987;SDS011;70452;39.386;-3.210;2024-01-06T02:40:17;1.00;;;0.00;;
80987;SDS011;70452;39.386;-3.210;2024-01-06T02:42:51;0.93;;;0.00;;
80987;SDS011;70452;39.386;-3.210;2024-01-06T02:45:42;1.50;;;0.00;;
80987;SDS011;70452;39.386;-3.210;2024-01-06T02:48:16;1.75;;;0.10;;
80987;SDS011;70452;39.386;-3.210;2024-01-06T02:50:44;1.55;;;0.22;;
80987;SDS011;70452;39.386;-3.210;2024-01-06T02:53:21;1.77;;;0.10;;
80987;SDS011;70452;39.386;-3.210;2024-01-06T02:55:57;1.00;;;0.30;;
80987;SDS011;70452;39.386;-3.210;2024-01-06T02:58:26;1.83;;;0.15;;
80987;SDS011;70452;39.386;-3.210;2024-01-06T03:01:20;1.83;;;0.08;;
80987;SDS011;70452;39.386;-3.210;2024-01-06T03:03:52;0.93;;;0.00;;
80987;SDS011;70452;39.386;-3.210;2024-01-06T03:06:48;0.90;;;0.05;;
80987;SDS011;70452;39.386;-3.210;2024-01-06T03:09:28;2.58;;;0.13;;
80987;SDS011;70452;39.386;-3.210;2024-01-06T03:12:24;0.45;;;0.00;;
80987;SDS011;70452;39.386;-3.210;2024-01-06T03:15:01;1.30;;;0.00;;
80987;SDS011;70452;39.386;-3.210;2024-01-06T03:17:45;0.35;;;0.00;;
80987;SDS011;70452;39.386;-3.210;2024-01-06T03:20:31;1.08;;;0.00;;
80987;SDS011;70452;39.386;-3.210;2024-01-06T03:23:04;2.17;;;0.10;;
80987;SDS011;70452;39.386;-3.210;2024-01-06T03:25:35;1.88;;;0.00;;
80987;SDS011;70452;39.386;-3.210;2024-01-06T03:28:23;0.57;;;0.05;;
80987;SDS011;70452;39.386;-3.210;2024-01-06T03:31:11;1.17;;;0.10;;
80987;SDS011;70452;39.386;-3.210;2024-01-06T03:33:40;0.63;;;0.10;;
80987;SDS011;70452;39.386;-3.210;2024-01-06T03:36:31;2.40;;;0.20;;
80987;SDS011;70452;39.386;-3.210;2024-01-06T03:39:01;1.05;;;0.10;;
80987;SDS011;70452;39.386;-3.210;2024-01-06T03:43:58;1.63;;;0.10;;
80987;SDS011;70452;39.386;-3.210;2024-01-06T03:46:37;1.65;;;0.10;;
80987;SDS011;70452;39.386;-3.210;2024-01-06T03:49:42;0.75;;;0.00;;
80987;SDS011;70452;39.386;-3.210;2024-01-06T03:52:16;1.63;;;0.10;;
80987;SDS011;70452;39.386;-3.210;2024-01-06T03:54:59;2.50;;;0.20;;
80987;SDS011;70452;39.386;-3.210;2024-01-06T03:57:36;1.52;;;0.20;;
80987;SDS011;70452;39.386;-3.210;2024-01-06T04:03:06;1.83;;;0.20;;
80987;SDS011;70452;39.386;-3.210;2024-01-06T04:05:44;2.97;;;0.30;;
80987;SDS011;70452;39.386;-3.210;2024-01-06T04:08:30;3.05;;;0.20;;
80987;SDS011;70452;39.386;-3.210;2024-01-06T04:11:16;4.00;;;0.10;;
80987;SDS011;70452;39.386;-3.210;2024-01-06T04:16:39;1.67;;;0.10;;
80987;SDS011;70452;39.386;-3.210;2024-01-06T04:19:22;2.95;;;0.15;;
80987;SDS011;70452;39.386;-3.210;2024-01-06T04:22:14;3.13;;;0.10;;
80987;SDS011;70452;39.386;-3.210;2024-01-06T04:24:51;2.05;;;0.20;;
80987;SDS011;70452;39.386;-3.210;2024-01-06T04:27:26;2.05;;;0.10;;
80987;SDS011;70452;39.386;-3.210;2024-01-06T04:32:59;2.72;;;0.20;;
80987;SDS011;70452;39.386;-3.210;2024-01-06T04:38:29;1.10;;;0.10;;
80987;SDS011;70452;39.386;-3.210;2024-01-06T04:41:31;2.40;;;0.22;;
80987;SDS011;70452;39.386;-3.210;2024-01-06T04:44:19;1.60;;;0.13;;
80987;SDS011;70452;39.386;-3.210;2024-01-06T04:46:55;2.67;;;0.20;;
80987;SDS011;70452;39.386;-3.210;2024-01-06T04:49:36;1.35;;;0.10;;
80987;SDS011;70452;39.386;-3.210;2024-01-06T04:52:22;2.28;;;0.10;;
80987;SDS011;70452;39.386;-3.210;2024-01-06T04:54:59;1.50;;;0.10;;
80987;SDS011;70452;39.386;-3.210;2024-01-06T04:57:49;2.22;;;0.10;;
80987;SDS011;70452;39.386;-3.210;2024-01-06T05:00:26;1.75;;;0.10;;
80987;SDS011;70452;39.386;-3.210;2024-01-06T05:03:01;1.52;;;0.10;;
80987;SDS011;70452;39.386;-3.210;2024-01-06T05:05:39;1.70;;;0.22;;
80987;SDS011;70452;39.386;-3.210;2024-01-06T05:11:11;3.35;;;0.40;;
80987;SDS011;70452;39.386;-3.210;2024-01-06T05:17:08;1.63;;;0.20;;
80987;SDS011;70452;39.386;-3.210;2024-01-06T05:19:37;2.97;;;0.30;;
80987;SDS011;70452;39.386;-3.210;2024-01-06T05:22:34;3.28;;;0.20;;
80987;SDS011;70452;39.386;-3.210;2024-01-06T05:28:00;1.70;;;0.10;;
80987;SDS011;70452;39.386;-3.210;2024-01-06T05:30:42;2.72;;;0.25;;
80987;SDS011;70452;39.386;-3.210;2024-01-06T05:33:34;2.70;;;0.30;;
80987;SDS011;70452;39.386;-3.210;2024-01-06T05:36:18;2.80;;;0.30;;
80987;SDS011;70452;39.386;-3.210;2024-01-06T05:41:53;2.58;;;0.20;;
80987;SDS011;70452;39.386;-3.210;2024-01-06T05:44:26;2.08;;;0.20;;
80987;SDS011;70452;39.386;-3.210;2024-01-06T05:47:15;1.83;;;0.20;;
80987;SDS011;70452;39.386;-3.210;2024-01-06T05:49:50;2.65;;;0.10;;
80987;SDS011;70452;39.386;-3.210;2024-01-06T05:52:37;4.03;;;0.55;;
80987;SDS011;70452;39.386;-3.210;2024-01-06T05:55:20;3.60;;;0.30;;
80987;SDS011;70452;39.386;-3.210;2024-01-06T06:01:28;1.63;;;0.10;;
80987;SDS011;70452;39.386;-3.210;2024-01-06T06:04:06;2.92;;;0.20;;
80987;SDS011;70452;39.386;-3.210;2024-01-06T06:06:55;2.95;;;0.40;;
80987;SDS011;70452;39.386;-3.210;2024-01-06T06:09:43;1.90;;;0.20;;
80987;SDS011;70452;39.386;-3.210;2024-01-06T06:12:22;2.95;;;0.25;;
80987;SDS011;70452;39.386;-3.210;2024-01-06T06:15:14;2.25;;;0.13;;
80987;SDS011;70452;39.386;-3.210;2024-01-06T06:17:47;1.50;;;0.20;;
80987;SDS011;70452;39.386;-3.210;2024-01-06T06:20:42;4.22;;;0.57;;
80987;SDS011;70452;39.386;-3.210;2024-01-06T06:23:21;3.75;;;0.43;;
80987;SDS011;70452;39.386;-3.210;2024-01-06T06:25:51;3.72;;;0.43;;
80987;SDS011;70452;39.386;-3.210;2024-01-06T06:31:40;3.65;;;0.22;;
80987;SDS011;70452;39.386;-3.210;2024-01-06T06:34:10;2.88;;;0.30;;
80987;SDS011;70452;39.386;-3.210;2024-01-06T06:39:35;3.75;;;0.40;;
80987;SDS011;70452;39.386;-3.210;2024-01-06T06:48:29;2.95;;;0.25;;
80987;SDS011;70452;39.386;-3.210;2024-01-06T06:51:18;3.17;;;0.40;;
80987;SDS011;70452;39.386;-3.210;2024-01-06T06:54:00;2.55;;;0.30;;
80987;SDS011;70452;39.386;-3.210;2024-01-06T06:56:35;3.88;;;0.20;;
80987;SDS011;70452;39.386;-3.210;2024-01-06T06:59:09;1.85;;;0.10;;
80987;SDS011;70452;39.386;-3.210;2024-01-06T07:01:51;2.85;;;0.20;;
80987;SDS011;70452;39.386;-3.210;2024-01-06T07:07:50;3.13;;;0.30;;
80987;SDS011;70452;39.386;-3.210;2024-01-06T07:10:37;4.03;;;0.40;;
80987;SDS011;70452;39.386;-3.210;2024-01-06T07:13:06;3.50;;;0.50;;
80987;SDS011;70452;39.386;-3.210;2024-01-06T07:15:42;4.43;;;0.60;;
80987;SDS011;70452;39.386;-3.210;2024-01-06T07:18:11;5.20;;;0.90;;
80987;SDS011;70452;39.386;-3.210;2024-01-06T07:20:55;5.18;;;0.75;;
80987;SDS011;70452;39.386;-3.210;2024-01-06T07:23:56;4.70;;;0.35;;
80987;SDS011;70452;39.386;-3.210;2024-01-06T07:26:43;7.65;;;0.80;;
80987;SDS011;70452;39.386;-3.210;2024-01-06T07:29:08;5.70;;;1.40;;
80987;SDS011;70452;39.386;-3.210;2024-01-06T07:31:42;3.78;;;0.30;;
80987;SDS011;70452;39.386;-3.210;2024-01-06T07:34:29;7.93;;;0.30;;
80987;SDS011;70452;39.386;-3.210;2024-01-06T07:37:24;6.78;;;0.80;;
80987;SDS011;70452;39.386;-3.210;2024-01-06T07:40:04;4.00;;;0.88;;
80987;SDS011;70452;39.386;-3.210;2024-01-06T07:42:33;4.85;;;0.70;;
80987;SDS011;70452;39.386;-3.210;2024-01-06T07:47:50;4.80;;;0.70;;
80987;SDS011;70452;39.386;-3.210;2024-01-06T07:53:12;10.35;;;2.47;;
80987;SDS011;70452;39.386;-3.210;2024-01-06T07:55:52;7.57;;;1.92;;
80987;SDS011;70452;39.386;-3.210;2024-01-06T07:58:28;7.43;;;1.67;;
80987;SDS011;70452;39.386;-3.210;2024-01-06T08:04:24;6.93;;;1.58;;
80987;SDS011;70452;39.386;-3.210;2024-01-06T08:07:07;5.95;;;1.80;;
80987;SDS011;70452;39.386;-3.210;2024-01-06T08:09:48;6.30;;;2.17;;
80987;SDS011;70452;39.386;-3.210;2024-01-06T08:12:44;10.80;;;4.10;;
80987;SDS011;70452;39.386;-3.210;2024-01-06T08:15:46;21.85;;;10.40;;
80987;SDS011;70452;39.386;-3.210;2024-01-06T08:18:35;21.52;;;9.35;;
80987;SDS011;70452;39.386;-3.210;2024-01-06T08:21:19;42.38;;;17.33;;
80987;SDS011;70452;39.386;-3.210;2024-01-06T08:27:23;35.65;;;12.32;;
80987;SDS011;70452;39.386;-3.210;2024-01-06T08:30:15;21.23;;;6.50;;
80987;SDS011;70452;39.386;-3.210;2024-01-06T08:32:46;20.65;;;6.38;;
80987;SDS011;70452;39.386;-3.210;2024-01-06T08:35:22;15.23;;;4.53;;
80987;SDS011;70452;39.386;-3.210;2024-01-06T08:38:07;6.88;;;1.58;;
80987;SDS011;70452;39.386;-3.210;2024-01-06T08:41:05;11.18;;;3.58;;
80987;SDS011;70452;39.386;-3.210;2024-01-06T08:43:31;25.13;;;8.45;;
80987;SDS011;70452;39.386;-3.210;2024-01-06T08:49:09;21.00;;;5.82;;
80987;SDS011;70452;39.386;-3.210;2024-01-06T08:52:09;17.75;;;5.75;;
80987;SDS011;70452;39.386;-3.210;2024-01-06T08:55:14;11.82;;;4.03;;
80987;SDS011;70452;39.386;-3.210;2024-01-06T08:58:08;13.05;;;3.35;;
80987;SDS011;70452;39.386;-3.210;2024-01-06T09:01:02;9.90;;;2.67;;
80987;SDS011;70452;39.386;-3.210;2024-01-06T09:03:33;10.02;;;2.00;;
80987;SDS011;70452;39.386;-3.210;2024-01-06T09:06:09;8.50;;;2.28;;
80987;SDS011;70452;39.386;-3.210;2024-01-06T09:08:58;5.47;;;1.17;;
80987;SDS011;70452;39.386;-3.210;2024-01-06T09:11:59;3.42;;;0.40;;
80987;SDS011;70452;39.386;-3.210;2024-01-06T09:14:50;4.80;;;0.50;;
80987;SDS011;70452;39.386;-3.210;2024-01-06T09:17:29;5.85;;;0.65;;
80987;SDS011;70452;39.386;-3.210;2024-01-06T09:23:52;18.27;;;6.95;;
80987;SDS011;70452;39.386;-3.210;2024-01-06T09:26:38;18.70;;;6.30;;
80987;SDS011;70452;39.386;-3.210;2024-01-06T09:29:20;10.40;;;4.50;;
80987;SDS011;70452;39.386;-3.210;2024-01-06T09:32:05;6.95;;;1.70;;
80987;SDS011;70452;39.386;-3.210;2024-01-06T09:41:36;4.88;;;0.70;;
80987;SDS011;70452;39.386;-3.210;2024-01-06T09:44:11;2.88;;;0.40;;
80987;SDS011;70452;39.386;-3.210;2024-01-06T09:46:44;3.30;;;0.50;;
80987;SDS011;70452;39.386;-3.210;2024-01-06T09:49:31;4.28;;;0.50;;
80987;SDS011;70452;39.386;-3.210;2024-01-06T09:52:20;4.15;;;0.63;;
80987;SDS011;70452;39.386;-3.210;2024-01-06T09:55:14;2.85;;;0.50;;
80987;SDS011;70452;39.386;-3.210;2024-01-06T09:58:09;1.90;;;0.20;;
80987;SDS011;70452;39.386;-3.210;2024-01-06T10:01:01;3.10;;;0.30;;
80987;SDS011;70452;39.386;-3.210;2024-01-06T10:03:41;2.83;;;0.20;;
80987;SDS011;70452;39.386;-3.210;2024-01-06T10:06:22;2.50;;;0.22;;
80987;SDS011;70452;39.386;-3.210;2024-01-06T10:09:07;3.28;;;0.32;;
80987;SDS011;70452;39.386;-3.210;2024-01-06T10:11:49;1.75;;;0.10;;
80987;SDS011;70452;39.386;-3.210;2024-01-06T10:14:31;1.05;;;0.10;;
80987;SDS011;70452;39.386;-3.210;2024-01-06T10:17:07;2.95;;;0.10;;
80987;SDS011;70452;39.386;-3.210;2024-01-06T10:19:53;2.08;;;0.30;;
80987;SDS011;70452;39.386;-3.210;2024-01-06T10:23:04;1.63;;;0.10;;
80987;SDS011;70452;39.386;-3.210;2024-01-06T10:26:13;1.13;;;0.10;;
80987;SDS011;70452;39.386;-3.210;2024-01-06T10:29:00;2.60;;;0.20;;
80987;SDS011;70452;39.386;-3.210;2024-01-06T10:31:42;2.33;;;0.10;;
80987;SDS011;70452;39.386;-3.210;2024-01-06T10:34:10;4.88;;;0.60;;
80987;SDS011;70452;39.386;-3.210;2024-01-06T10:36:51;5.10;;;0.95;;
80987;SDS011;70452;39.386;-3.210;2024-01-06T10:39:28;4.40;;;0.50;;
80987;SDS011;70452;39.386;-3.210;2024-01-06T10:42:13;3.85;;;0.90;;
80987;SDS011;70452;39.386;-3.210;2024-01-06T10:45:04;3.53;;;0.40;;
80987;SDS011;70452;39.386;-3.210;2024-01-06T10:47:55;1.33;;;0.10;;
80987;SDS011;70452;39.386;-3.210;2024-01-06T10:50:31;1.38;;;0.15;;
80987;SDS011;70452;39.386;-3.210;2024-01-06T10:53:05;1.10;;;0.10;;
80987;SDS011;70452;39.386;-3.210;2024-01-06T10:55:53;5.13;;;0.68;;
80987;SDS011;70452;39.386;-3.210;2024-01-06T10:59:02;5.10;;;0.40;;
80987;SDS011;70452;39.386;-3.210;2024-01-06T11:01:51;4.40;;;0.30;;
80987;SDS011;70452;39.386;-3.210;2024-01-06T11:04:38;3.28;;;0.40;;
80987;SDS011;70452;39.386;-3.210;2024-01-06T11:07:29;5.30;;;0.20;;
80987;SDS011;70452;39.386;-3.210;2024-01-06T11:10:36;4.28;;;0.47;;
80987;SDS011;70452;39.386;-3.210;2024-01-06T11:13:20;5.53;;;0.70;;
80987;SDS011;70452;39.386;-3.210;2024-01-06T11:16:04;3.83;;;0.40;;
80987;SDS011;70452;39.386;-3.210;2024-01-06T11:25:16;2.78;;;0.60;;
80987;SDS011;70452;39.386;-3.210;2024-01-06T11:27:59;4.53;;;0.50;;
80987;SDS011;70452;39.386;-3.210;2024-01-06T11:30:44;1.30;;;0.20;;
80987;SDS011;70452;39.386;-3.210;2024-01-06T11:33:58;0.73;;;0.00;;
80987;SDS011;70452;39.386;-3.210;2024-01-06T11:36:53;1.45;;;0.10;;
80987;SDS011;70452;39.386;-3.210;2024-01-06T11:39:49;2.45;;;0.32;;
80987;SDS011;70452;39.386;-3.210;2024-01-06T11:42:41;2.65;;;0.30;;
80987;SDS011;70452;39.386;-3.210;2024-01-06T11:45:18;3.33;;;0.35;;
80987;SDS011;70452;39.386;-3.210;2024-01-06T11:48:05;0.77;;;0.10;;
80987;SDS011;70452;39.386;-3.210;2024-01-06T11:50:43;2.08;;;0.32;;
80987;SDS011;70452;39.386;-3.210;2024-01-06T11:53:17;1.80;;;0.35;;
80987;SDS011;70452;39.386;-3.210;2024-01-06T11:59:34;2.45;;;0.20;;
80987;SDS011;70452;39.386;-3.210;2024-01-06T12:02:17;1.77;;;0.30;;
80987;SDS011;70452;39.386;-3.210;2024-01-06T12:04:56;2.25;;;0.20;;
80987;SDS011;70452;39.386;-3.210;2024-01-06T12:07:39;3.13;;;0.17;;
80987;SDS011;70452;39.386;-3.210;2024-01-06T12:10:11;1.25;;;0.20;;
80987;SDS011;70452;39.386;-3.210;2024-01-06T12:12:42;1.92;;;0.20;;
80987;SDS011;70452;39.386;-3.210;2024-01-06T12:15:48;3.75;;;0.60;;
80987;SDS011;70452;39.386;-3.210;2024-01-06T12:21:31;1.73;;;0.20;;
80987;SDS011;70452;39.386;-3.210;2024-01-06T12:27:34;1.45;;;0.00;;
80987;SDS011;70452;39.386;-3.210;2024-01-06T12:30:25;0.98;;;0.00;;
80987;SDS011;70452;39.386;-3.210;2024-01-06T12:33:17;0.80;;;0.00;;
80987;SDS011;70452;39.386;-3.210;2024-01-06T12:36:06;1.27;;;0.10;;
80987;SDS011;70452;39.386;-3.210;2024-01-06T12:38:47;1.52;;;0.20;;
80987;SDS011;70452;39.386;-3.210;2024-01-06T12:41:35;2.15;;;0.30;;
80987;SDS011;70452;39.386;-3.210;2024-01-06T12:44:16;2.50;;;0.20;;
80987;SDS011;70452;39.386;-3.210;2024-01-06T12:46:47;2.70;;;0.30;;
80987;SDS011;70452;39.386;-3.210;2024-01-06T12:49:42;5.32;;;0.63;;
80987;SDS011;70452;39.386;-3.210;2024-01-06T12:52:24;1.02;;;0.00;;
80987;SDS011;70452;39.386;-3.210;2024-01-06T12:55:08;1.85;;;0.10;;
80987;SDS011;70452;39.386;-3.210;2024-01-06T12:57:43;1.63;;;0.10;;
80987;SDS011;70452;39.386;-3.210;2024-01-06T13:00:46;3.65;;;0.32;;
80987;SDS011;70452;39.386;-3.210;2024-01-06T13:03:38;1.15;;;0.10;;
80987;SDS011;70452;39.386;-3.210;2024-01-06T13:06:16;6.88;;;0.20;;
80987;SDS011;70452;39.386;-3.210;2024-01-06T13:09:22;4.60;;;0.50;;
80987;SDS011;70452;39.386;-3.210;2024-01-06T13:15:16;4.22;;;0.30;;
80987;SDS011;70452;39.386;-3.210;2024-01-06T13:17:57;2.78;;;0.43;;
80987;SDS011;70452;39.386;-3.210;2024-01-06T13:20:43;5.05;;;0.45;;
80987;SDS011;70452;39.386;-3.210;2024-01-06T13:23:25;2.17;;;0.15;;
80987;SDS011;70452;39.386;-3.210;2024-01-06T13:26:04;2.53;;;0.20;;
80987;SDS011;70452;39.386;-3.210;2024-01-06T13:29:05;1.65;;;0.10;;
80987;SDS011;70452;39.386;-3.210;2024-01-06T13:31:37;4.50;;;0.50;;
80987;SDS011;70452;39.386;-3.210;2024-01-06T13:34:26;4.18;;;0.60;;
80987;SDS011;70452;39.386;-3.210;2024-01-06T13:36:59;4.10;;;0.55;;
80987;SDS011;70452;39.386;-3.210;2024-01-06T13:39:40;4.10;;;0.52;;
80987;SDS011;70452;39.386;-3.210;2024-01-06T13:42:23;2.75;;;0.30;;
80987;SDS011;70452;39.386;-3.210;2024-01-06T13:54:12;2.60;;;0.20;;
80987;SDS011;70452;39.386;-3.210;2024-01-06T13:57:09;9.52;;;2.25;;
80987;SDS011;70452;39.386;-3.210;2024-01-06T14:09:10;1.73;;;0.20;;
80987;SDS011;70452;39.386;-3.210;2024-01-06T14:12:23;2.80;;;0.10;;
80987;SDS011;70452;39.386;-3.210;2024-01-06T14:15:30;1.65;;;0.10;;
80987;SDS011;70452;39.386;-3.210;2024-01-06T14:21:10;0.90;;;0.10;;
80987;SDS011;70452;39.386;-3.210;2024-01-06T14:23:46;1.98;;;0.10;;
80987;SDS011;70452;39.386;-3.210;2024-01-06T14:26:50;1.77;;;0.20;;
80987;SDS011;70452;39.386;-3.210;2024-01-06T14:29:29;1.20;;;0.15;;
80987;SDS011;70452;39.386;-3.210;2024-01-06T14:32:46;2.40;;;0.10;;
80987;SDS011;70452;39.386;-3.210;2024-01-06T14:35:29;2.63;;;0.20;;
80987;SDS011;70452;39.386;-3.210;2024-01-06T14:50:13;2.45;;;0.25;;
80987;SDS011;70452;39.386;-3.210;2024-01-06T14:52:53;1.25;;;0.10;;
80987;SDS011;70452;39.386;-3.210;2024-01-06T14:55:59;1.48;;;0.10;;
80987;SDS011;70452;39.386;-3.210;2024-01-06T14:58:48;1.77;;;0.20;;
80987;SDS011;70452;39.386;-3.210;2024-01-06T15:04:57;0.60;;;0.10;;
80987;SDS011;70452;39.386;-3.210;2024-01-06T15:07:57;1.33;;;0.10;;
80987;SDS011;70452;39.386;-3.210;2024-01-06T15:10:45;1.13;;;0.00;;
80987;SDS011;70452;39.386;-3.210;2024-01-06T15:13:23;1.67;;;0.10;;
80987;SDS011;70452;39.386;-3.210;2024-01-06T15:15:57;2.13;;;0.20;;
80987;SDS011;70452;39.386;-3.210;2024-01-06T15:21:39;2.30;;;0.20;;
80987;SDS011;70452;39.386;-3.210;2024-01-06T15:27:17;3.10;;;0.35;;
80987;SDS011;70452;39.386;-3.210;2024-01-06T15:32:47;3.55;;;0.28;;
80987;SDS011;70452;39.386;-3.210;2024-01-06T15:35:30;1.02;;;0.10;;
80987;SDS011;70452;39.386;-3.210;2024-01-06T15:38:06;2.30;;;0.10;;
80987;SDS011;70452;39.386;-3.210;2024-01-06T15:41:13;1.92;;;0.20;;
80987;SDS011;70452;39.386;-3.210;2024-01-06T15:43:50;1.77;;;0.10;;
80987;SDS011;70452;39.386;-3.210;2024-01-06T15:46:36;1.95;;;0.10;;
80987;SDS011;70452;39.386;-3.210;2024-01-06T15:49:08;0.90;;;0.10;;
80987;SDS011;70452;39.386;-3.210;2024-01-06T15:51:52;1.20;;;0.10;;
80987;SDS011;70452;39.386;-3.210;2024-01-06T16:00:50;1.60;;;0.10;;
80987;SDS011;70452;39.386;-3.210;2024-01-06T16:03:39;2.75;;;0.20;;
80987;SDS011;70452;39.386;-3.210;2024-01-06T16:06:36;5.03;;;0.70;;
80987;SDS011;70452;39.386;-3.210;2024-01-06T16:14:53;3.40;;;0.30;;
80987;SDS011;70452;39.386;-3.210;2024-01-06T16:17:59;4.60;;;0.52;;
80987;SDS011;70452;39.386;-3.210;2024-01-06T16:20:47;3.15;;;0.30;;
80987;SDS011;70452;39.386;-3.210;2024-01-06T16:23:35;1.90;;;0.30;;
80987;SDS011;70452;39.386;-3.210;2024-01-06T16:26:05;2.17;;;0.20;;
80987;SDS011;70452;39.386;-3.210;2024-01-06T16:31:45;2.35;;;0.20;;
80987;SDS011;70452;39.386;-3.210;2024-01-06T16:34:25;2.13;;;0.20;;
80987;SDS011;70452;39.386;-3.210;2024-01-06T16:40:33;2.63;;;0.20;;
80987;SDS011;70452;39.386;-3.210;2024-01-06T16:46:21;2.45;;;0.45;;
80987;SDS011;70452;39.386;-3.210;2024-01-06T16:55:02;1.15;;;0.10;;
80987;SDS011;70452;39.386;-3.210;2024-01-06T16:57:42;3.47;;;0.38;;
80987;SDS011;70452;39.386;-3.210;2024-01-06T17:00:30;1.63;;;0.28;;
80987;SDS011;70452;39.386;-3.210;2024-01-06T17:03:11;2.35;;;0.20;;
80987;SDS011;70452;39.386;-3.210;2024-01-06T17:05:49;3.13;;;0.68;;
80987;SDS011;70452;39.386;-3.210;2024-01-06T17:08:45;7.18;;;1.10;;
80987;SDS011;70452;39.386;-3.210;2024-01-06T17:11:24;5.03;;;0.73;;
80987;SDS011;70452;39.386;-3.210;2024-01-06T17:14:04;5.28;;;0.88;;
80987;SDS011;70452;39.386;-3.210;2024-01-06T17:16:33;2.42;;;0.28;;
80987;SDS011;70452;39.386;-3.210;2024-01-06T17:19:13;4.43;;;0.50;;
80987;SDS011;70452;39.386;-3.210;2024-01-06T17:22:48;2.65;;;0.20;;
80987;SDS011;70452;39.386;-3.210;2024-01-06T17:25:27;6.72;;;0.88;;
80987;SDS011;70452;39.386;-3.210;2024-01-06T17:28:26;5.05;;;0.85;;
80987;SDS011;70452;39.386;-3.210;2024-01-06T17:30:57;5.10;;;0.75;;
80987;SDS011;70452;39.386;-3.210;2024-01-06T17:33:53;5.60;;;1.73;;
80987;SDS011;70452;39.386;-3.210;2024-01-06T17:36:38;4.90;;;0.63;;
80987;SDS011;70452;39.386;-3.210;2024-01-06T17:39:17;4.85;;;0.70;;
80987;SDS011;70452;39.386;-3.210;2024-01-06T17:42:11;4.40;;;0.77;;
80987;SDS011;70452;39.386;-3.210;2024-01-06T17:44:56;5.03;;;1.15;;
80987;SDS011;70452;39.386;-3.210;2024-01-06T17:47:58;4.75;;;0.80;;
80987;SDS011;70452;39.386;-3.210;2024-01-06T17:50:32;5.30;;;1.17;;
80987;SDS011;70452;39.386;-3.210;2024-01-06T17:53:42;6.13;;;0.93;;
80987;SDS011;70452;39.386;-3.210;2024-01-06T17:55:57;3.95;;;0.40;;
80987;SDS011;70452;39.386;-3.210;2024-01-06T17:58:46;4.18;;;1.02;;
80987;SDS011;70452;39.386;-3.210;2024-01-06T18:01:27;7.25;;;0.95;;
80987;SDS011;70452;39.386;-3.210;2024-01-06T18:04:15;3.53;;;0.52;;
80987;SDS011;70452;39.386;-3.210;2024-01-06T18:07:08;7.30;;;1.40;;
80987;SDS011;70452;39.386;-3.210;2024-01-06T18:10:08;3.97;;;0.20;;
80987;SDS011;70452;39.386;-3.210;2024-01-06T18:12:54;1.83;;;0.10;;
80987;SDS011;70452;39.386;-3.210;2024-01-06T18:18:35;3.00;;;0.47;;
80987;SDS011;70452;39.386;-3.210;2024-01-06T18:21:20;3.22;;;0.20;;
80987;SDS011;70452;39.386;-3.210;2024-01-06T18:24:15;3.50;;;0.75;;
80987;SDS011;70452;39.386;-3.210;2024-01-06T18:26:46;1.65;;;0.20;;
80987;SDS011;70452;39.386;-3.210;2024-01-06T18:29:15;2.90;;;0.40;;
80987;SDS011;70452;39.386;-3.210;2024-01-06T18:32:12;2.08;;;0.30;;
80987;SDS011;70452;39.386;-3.210;2024-01-06T18:35:05;4.85;;;0.57;;
80987;SDS011;70452;39.386;-3.210;2024-01-06T18:37:41;3.78;;;0.50;;
80987;SDS011;70452;39.386;-3.210;2024-01-06T18:40:25;7.32;;;1.30;;
80987;SDS011;70452;39.386;-3.210;2024-01-06T18:43:22;5.00;;;1.15;;
80987;SDS011;70452;39.386;-3.210;2024-01-06T18:46:00;3.72;;;0.47;;
80987;SDS011;70452;39.386;-3.210;2024-01-06T18:48:36;4.40;;;0.50;;
80987;SDS011;70452;39.386;-3.210;2024-01-06T18:51:22;4.93;;;1.10;;
80987;SDS011;70452;39.386;-3.210;2024-01-06T18:54:08;6.45;;;0.98;;
80987;SDS011;70452;39.386;-3.210;2024-01-06T18:57:05;6.15;;;0.70;;
80987;SDS011;70452;39.386;-3.210;2024-01-06T18:59:57;4.20;;;0.60;;
80987;SDS011;70452;39.386;-3.210;2024-01-06T19:02:54;3.80;;;0.52;;
80987;SDS011;70452;39.386;-3.210;2024-01-06T19:05:27;6.00;;;0.60;;